Time;durP1;ratioP1;P1;durP2;ratioP2;P2;SDS_P1;SDS_P2;PMS_P1;PMS_P2;Temp;Humidity;BMP_temperature;BMP_pressure;BME280_temperature;BME280_humidity;BME280_pressure;Samples;Min_cycle;Max_cycle;Signal;HPM_P1;HPM_P2
2022/09/12 00:00:51;;;;;;;1.23;1.13;;;;;;;;;;5025894;28;20120;-73
2022/09/12 00:03:17;;;;;;;1.50;1.40;;;;;;;;;;5026574;28;20049;-73
2022/09/12 00:05:44;;;;;;;1.50;1.40;;;;;;;;;;5023628;28;20408;-73
2022/09/12 00:08:11;;;;;;;1.77;1.67;;;;;;;;;;5025967;28;20547;-73
2022/09/12 00:10:41;;;;;;;1.60;1.50;;;;;;;;;;5025028;28;20342;-73
2022/09/12 00:13:08;;;;;;;1.77;1.67;;;;;;;;;;5023660;28;20476;-73
2022/09/12 00:15:40;;;;;;;1.30;1.30;;;;;;;;;;5026290;28;20045;-73
2022/09/12 00:18:08;;;;;;;1.30;1.20;;;;;;;;;;5024954;28;20081;-73
2022/09/12 00:20:34;;;;;;;2.15;1.95;;;;;;;;;;5026379;28;20091;-74
2022/09/12 00:23:00;;;;;;;1.70;1.60;;;;;;;;;;5025525;28;20077;-74
2022/09/12 00:25:29;;;;;;;1.70;1.60;;;;;;;;;;5024514;28;20397;-74
2022/09/12 00:27:55;;;;;;;1.63;1.52;;;;;;;;;;5025488;28;20061;-74
2022/09/12 00:30:21;;;;;;;1.60;1.50;;;;;;;;;;5024330;28;20099;-74
2022/09/12 00:32:49;;;;;;;1.63;1.52;;;;;;;;;;5023879;28;20060;-74
2022/09/12 00:35:15;;;;;;;1.60;1.50;;;;;;;;;;5024797;28;20091;-74
2022/09/12 00:37:41;;;;;;;2.33;2.22;;;;;;;;;;5025025;28;20464;-74
2022/09/12 00:40:07;;;;;;;2.00;1.90;;;;;;;;;;5024796;28;20468;-74
2022/09/12 00:42:33;;;;;;;1.80;1.70;;;;;;;;;;5020159;28;20048;-74
2022/09/12 00:44:59;;;;;;;2.00;1.90;;;;;;;;;;5025042;28;20407;-74
2022/09/12 00:47:27;;;;;;;1.88;1.77;;;;;;;;;;5023582;28;19980;-74
2022/09/12 00:50:05;;;;;;;1.90;1.80;;;;;;;;;;5025340;28;20056;-74
2022/09/12 00:52:31;;;;;;;2.75;2.40;;;;;;;;;;5025756;28;20504;-74
2022/09/12 00:55:05;;;;;;;2.13;2.03;;;;;;;;;;5024200;28;20042;-73
2022/09/12 00:57:35;;;;;;;2.63;2.42;;;;;;;;;;5024822;28;20099;-74
2022/09/12 01:00:08;;;;;;;2.03;1.83;;;;;;;;;;5022934;28;20049;-74
2022/09/12 01:02:35;;;;;;;2.15;2.05;;;;;;;;;;5022620;28;20053;-74
2022/09/12 01:05:01;;;;;;;2.67;1.88;;;;;;;;;;5023068;28;20057;-74
2022/09/12 01:07:27;;;;;;;2.30;2.10;;;;;;;;;;5024745;28;20060;-74
2022/09/12 01:09:53;;;;;;;2.08;1.98;;;;;;;;;;5023599;28;20081;-74
2022/09/12 01:12:20;;;;;;;1.83;1.73;;;;;;;;;;5025197;28;20043;-74
2022/09/12 01:14:46;;;;;;;1.90;1.80;;;;;;;;;;5023604;28;20049;-73
2022/09/12 01:17:15;;;;;;;1.85;1.75;;;;;;;;;;5023746;28;20049;-74
2022/09/12 01:20:03;;;;;;;2.17;2.08;;;;;;;;;;5020516;28;20516;-74
2022/09/12 01:22:48;;;;;;;1.83;1.73;;;;;;;;;;5022427;28;20049;-74
2022/09/12 01:25:33;;;;;;;2.10;2.00;;;;;;;;;;5025097;28;20475;-74
2022/09/12 01:27:59;;;;;;;2.42;2.13;;;;;;;;;;5024179;28;20049;-74
2022/09/12 01:30:43;;;;;;;1.92;1.67;;;;;;;;;;5024537;28;20647;-74
2022/09/12 01:33:09;;;;;;;2.40;2.30;;;;;;;;;;5022908;28;20061;-74
2022/09/12 01:35:44;;;;;;;2.17;2.08;;;;;;;;;;5024268;28;20048;-74
2022/09/12 01:38:35;;;;;;;2.15;2.05;;;;;;;;;;5024642;28;20049;-74
2022/09/12 01:41:13;;;;;;;2.03;1.92;;;;;;;;;;5021049;28;20369;-74
2022/09/12 01:43:42;;;;;;;2.63;2.42;;;;;;;;;;5022095;28;20049;-74
2022/09/12 01:46:11;;;;;;;2.17;2.05;;;;;;;;;;5022804;28;20057;-73
2022/09/12 01:48:43;;;;;;;2.95;2.75;;;;;;;;;;5023346;28;20467;-74
2022/09/12 01:51:19;;;;;;;2.22;2.13;;;;;;;;;;5021962;28;20045;-74
2022/09/12 01:53:48;;;;;;;2.22;2.13;;;;;;;;;;5025031;28;19974;-74
2022/09/12 01:56:14;;;;;;;2.40;2.20;;;;;;;;;;5023186;28;20561;-74
2022/09/12 01:58:40;;;;;;;2.13;2.00;;;;;;;;;;5023382;28;20077;-73
2022/09/12 02:01:07;;;;;;;2.60;2.40;;;;;;;;;;5023629;28;20518;-74
2022/09/12 02:03:41;;;;;;;2.67;2.58;;;;;;;;;;5022964;28;20095;-73
2022/09/12 02:06:10;;;;;;;2.60;2.40;;;;;;;;;;5023753;28;20428;-74
2022/09/12 02:08:42;;;;;;;2.72;2.53;;;;;;;;;;5023151;28;20057;-74
2022/09/12 02:11:08;;;;;;;;;;;;;;;;;;5023656;28;20096;-74
2022/09/12 02:13:37;;;;;;;3.25;3.05;;;;;;;;;;5023263;28;19975;-74
2022/09/12 02:16:09;;;;;;;2.70;2.50;;;;;;;;;;5023659;28;20511;-74
2022/09/12 02:18:38;;;;;;;2.78;2.58;;;;;;;;;;5019927;28;20089;-74
2022/09/12 02:21:05;;;;;;;2.60;2.40;;;;;;;;;;5022657;28;20136;-74
2022/09/12 02:23:31;;;;;;;2.95;2.75;;;;;;;;;;5021653;28;20057;-74
2022/09/12 02:26:03;;;;;;;3.13;2.92;;;;;;;;;;5023324;28;20060;-74
2022/09/12 02:28:31;;;;;;;2.65;2.53;;;;;;;;;;5023261;28;20053;-74
2022/09/12 02:31:07;;;;;;;2.80;2.60;;;;;;;;;;5022521;28;20504;-73
2022/09/12 02:33:41;;;;;;;2.22;2.13;;;;;;;;;;5016544;28;20132;-73
2022/09/12 02:36:15;;;;;;;2.70;2.50;;;;;;;;;;5022483;28;20578;-74
2022/09/12 02:38:44;;;;;;;2.80;2.60;;;;;;;;;;5023573;28;20041;-71
2022/09/12 02:41:10;;;;;;;2.47;2.38;;;;;;;;;;5023580;28;20515;-72
2022/09/12 02:43:37;;;;;;;;;;;;;;;;;;5023116;28;20136;-72
2022/09/12 02:46:05;;;;;;;2.70;2.60;;;;;;;;;;5021283;28;19925;-72
2022/09/12 02:48:33;;;;;;;3.75;3.45;;;;;;;;;;5022189;28;20038;-72
2022/09/12 02:50:59;;;;;;;2.80;2.65;;;;;;;;;;5023500;28;20553;-73
2022/09/12 02:53:25;;;;;;;2.78;2.58;;;;;;;;;;5022405;28;20043;-73
2022/09/12 02:55:52;;;;;;;3.20;3.00;;;;;;;;;;5023867;28;20175;-73
2022/09/12 02:58:20;;;;;;;2.67;2.47;;;;;;;;;;5020638;28;20042;-73
2022/09/12 03:00:57;;;;;;;3.50;3.20;;;;;;;;;;5023475;28;20414;-73
2022/09/12 03:03:35;;;;;;;3.13;2.92;;;;;;;;;;5023779;28;20507;-73
2022/09/12 03:06:31;;;;;;;4.13;3.47;;;;;;;;;;5021673;28;20542;-72
2022/09/12 03:09:00;;;;;;;3.30;3.10;;;;;;;;;;4940692;28;20095;-73
2022/09/12 03:11:42;;;;;;;2.35;2.25;;;;;;;;;;5025687;28;20091;-73
2022/09/12 03:14:34;;;;;;;3.67;3.47;;;;;;;;;;5023627;28;20065;-73
2022/09/12 03:17:15;;;;;;;3.22;3.03;;;;;;;;;;5019775;28;20055;-73
2022/09/12 03:19:42;;;;;;;;;;;;;;;;;;5024686;28;20045;-73
2022/09/12 03:22:17;;;;;;;2.05;1.95;;;;;;;;;;5024735;28;20084;-73
2022/09/12 03:24:53;;;;;;;2.95;2.75;;;;;;;;;;5027609;28;20073;-72
2022/09/12 03:27:29;;;;;;;2.95;2.75;;;;;;;;;;5027298;28;20407;-73
2022/09/12 03:29:55;;;;;;;2.70;2.50;;;;;;;;;;5024664;28;20053;-73
2022/09/12 03:32:39;;;;;;;2.78;2.58;;;;;;;;;;5027027;28;20045;-73
2022/09/12 03:35:05;;;;;;;2.55;2.35;;;;;;;;;;5024806;28;20801;-72
2022/09/12 03:37:31;;;;;;;2.63;2.45;;;;;;;;;;5026948;28;20080;-73
2022/09/12 03:39:57;;;;;;;2.55;2.35;;;;;;;;;;5026310;28;20469;-73
2022/09/12 03:42:23;;;;;;;2.42;2.33;;;;;;;;;;5025009;28;20041;-73
2022/09/12 03:44:49;;;;;;;2.67;2.47;;;;;;;;;;5025257;28;20549;-73
2022/09/12 03:47:15;;;;;;;2.33;2.13;;;;;;;;;;5027161;28;20080;-73
2022/09/12 03:49:41;;;;;;;2.30;2.20;;;;;;;;;;5026473;28;20037;-72
2022/09/12 03:52:07;;;;;;;1.75;1.65;;;;;;;;;;5026382;28;20064;-73
2022/09/12 03:54:33;;;;;;;1.58;1.48;;;;;;;;;;5026866;28;20049;-73
2022/09/12 03:56:59;;;;;;;1.08;1.08;;;;;;;;;;5024292;28;20204;-73
2022/09/12 03:59:25;;;;;;;1.20;1.20;;;;;;;;;;5026555;28;20057;-73
2022/09/12 04:01:51;;;;;;;1.60;1.50;;;;;;;;;;5023339;28;20053;-72
2022/09/12 04:04:17;;;;;;;1.67;1.58;;;;;;;;;;5026152;28;20045;-73
2022/09/12 04:06:43;;;;;;;1.50;1.40;;;;;;;;;;5025554;28;20512;-73
2022/09/12 04:09:09;;;;;;;1.10;1.10;;;;;;;;;;5025794;28;20080;-73
2022/09/12 04:11:35;;;;;;;2.15;2.00;;;;;;;;;;5023233;28;20450;-73
2022/09/12 04:14:01;;;;;;;;;;;;;;;;;;5024949;28;19932;-73
2022/09/12 04:16:27;;;;;;;;;;;;;;;;;;5023188;28;19925;-73
2022/09/12 04:18:53;;;;;;;;;;;;;;;;;;5025196;28;19925;-73
2022/09/12 04:21:20;;;;;;;;;;;;;;;;;;5024974;28;19983;-73
2022/09/12 04:23:46;;;;;;;;;;;;;;;;;;5024973;28;20023;-74
2022/09/12 04:26:12;;;;;;;;;;;;;;;;;;5026102;28;20024;-73
2022/09/12 04:28:38;;;;;;;2.10;2.00;;;;;;;;;;5024866;28;19933;-73
2022/09/12 04:31:04;;;;;;;;;;;;;;;;;;5024190;28;20394;-73
2022/09/12 04:33:30;;;;;;;;;;;;;;;;;;5026598;28;20027;-73
2022/09/12 04:35:56;;;;;;;;;;;;;;;;;;5025824;28;20016;-73
2022/09/12 04:38:23;;;;;;;;;;;;;;;;;;5020199;28;20496;-73
2022/09/12 04:40:49;;;;;;;;;;;;;;;;;;5025912;28;20016;-73
2022/09/12 04:43:15;;;;;;;2.85;2.65;;;;;;;;;;5026425;28;20005;-73
2022/09/12 04:45:41;;;;;;;2.50;2.35;;;;;;;;;;5024478;28;20058;-73
2022/09/12 04:48:07;;;;;;;2.08;1.98;;;;;;;;;;5025004;28;20436;-72
2022/09/12 04:50:33;;;;;;;3.67;3.38;;;;;;;;;;5025742;28;20687;-73
2022/09/12 04:52:59;;;;;;;2.85;2.65;;;;;;;;;;5024220;28;20045;-74
2022/09/12 04:55:25;;;;;;;3.30;3.00;;;;;;;;;;5024448;28;20049;-74
2022/09/12 04:57:51;;;;;;;3.40;3.20;;;;;;;;;;5025209;28;20480;-74
2022/09/12 05:00:17;;;;;;;4.82;4.43;;;;;;;;;;5024799;28;20119;-74
2022/09/12 05:02:43;;;;;;;4.20;3.80;;;;;;;;;;5023178;28;20076;-74
2022/09/12 05:05:10;;;;;;;3.97;3.67;;;;;;;;;;5024574;28;20064;-74
2022/09/12 05:07:36;;;;;;;3.35;3.15;;;;;;;;;;5024813;28;20424;-74
2022/09/12 05:10:03;;;;;;;3.17;2.97;;;;;;;;;;5023430;28;20047;-74
2022/09/12 05:12:29;;;;;;;3.47;3.22;;;;;;;;;;5024155;28;20080;-73
2022/09/12 05:14:55;;;;;;;2.90;2.70;;;;;;;;;;5022879;28;20391;-74
2022/09/12 05:17:21;;;;;;;3.17;2.97;;;;;;;;;;5025455;28;20036;-74
2022/09/12 05:19:48;;;;;;;3.90;3.60;;;;;;;;;;5025025;28;20500;-74
2022/09/12 05:22:14;;;;;;;4.00;3.70;;;;;;;;;;5020960;28;20213;-74
2022/09/12 05:24:42;;;;;;;;;;;;;;;;;;5024235;28;19956;-74
2022/09/12 05:27:08;;;;;;;;;;;;;;;;;;5025131;28;19967;-74
2022/09/12 05:29:34;;;;;;;;;;;;;;;;;;5023215;28;19960;-74
2022/09/12 05:32:00;;;;;;;;;;;;;;;;;;5023431;28;19925;-74
2022/09/12 05:34:26;;;;;;;;;;;;;;;;;;5022861;28;20264;-74
2022/09/12 05:36:52;;;;;;;;;;;;;;;;;;5023672;28;20011;-74
2022/09/12 05:39:18;;;;;;;;;;;;;;;;;;5023044;28;20008;-74
2022/09/12 05:41:44;;;;;;;;;;;;;;;;;;5025408;28;19925;-74
2022/09/12 05:44:10;;;;;;;;;;;;;;;;;;5024883;28;19921;-74
2022/09/12 05:46:36;;;;;;;;;;;;;;;;;;5019725;28;19924;-74
2022/09/12 05:49:02;;;;;;;;;;;;;;;;;;5023831;28;19921;-74
2022/09/12 05:51:28;;;;;;;;;;;;;;;;;;5025184;28;19917;-74
2022/09/12 05:53:54;;;;;;;;;;;;;;;;;;5023268;28;19947;-74
2022/09/12 05:56:21;;;;;;;;;;;;;;;;;;5022609;28;19925;-74
2022/09/12 05:58:47;;;;;;;;;;;;;;;;;;5023447;28;19924;-74
2022/09/12 06:01:13;;;;;;;;;;;;;;;;;;5023782;28;19920;-74
2022/09/12 06:03:39;;;;;;;;;;;;;;;;;;5022084;28;19947;-74
2022/09/12 06:06:05;;;;;;;;;;;;;;;;;;5021980;28;19986;-74
2022/09/12 06:08:31;;;;;;;;;;;;;;;;;;5023332;28;20386;-74
2022/09/12 06:10:57;;;;;;;;;;;;;;;;;;5022107;28;19928;-74
2022/09/12 06:13:23;;;;;;;;;;;;;;;;;;5023614;28;19921;-74
2022/09/12 06:15:49;;;;;;;;;;;;;;;;;;5024709;28;19921;-74
2022/09/12 06:18:14;;;;;;;;;;;;;;;;;;5024248;28;20425;-74
2022/09/12 06:20:40;;;;;;;;;;;;;;;;;;5023275;28;19925;-74
2022/09/12 06:23:06;;;;;;;;;;;;;;;;;;5017288;28;19921;-74
2022/09/12 06:25:32;;;;;;;;;;;;;;;;;;5021258;28;19978;-74
2022/09/12 06:27:58;;;;;;;;;;;;;;;;;;5021386;28;19992;-74
2022/09/12 06:30:24;;;;;;;;;;;;;;;;;;5019848;28;19924;-71
2022/09/12 06:32:50;;;;;;;;;;;;;;;;;;5021377;28;20364;-72
2022/09/12 06:35:16;;;;;;;;;;;;;;;;;;5017114;28;20027;-71
2022/09/12 06:37:42;;;;;;;;;;;;;;;;;;5024324;28;19948;-72
2022/09/12 06:40:08;;;;;;;;;;;;;;;;;;5024753;28;20464;-72
2022/09/12 06:42:34;;;;;;;;;;;;;;;;;;5025414;28;19925;-72
2022/09/12 06:45:00;;;;;;;;;;;;;;;;;;5024326;28;19921;-72
2022/09/12 06:47:27;;;;;;;;;;;;;;;;;;5027711;28;19925;-72
2022/09/12 06:49:52;;;;;;;;;;;;;;;;;;5028202;28;19928;-67
2022/09/12 06:52:18;;;;;;;;;;;;;;;;;;5028398;28;19925;-64
2022/09/12 06:54:45;;;;;;;;;;;;;;;;;;5029688;28;20333;-69
2022/09/12 06:57:11;;;;;;;;;;;;;;;;;;5029094;28;19964;-66
2022/09/12 06:59:37;;;;;;;;;;;;;;;;;;5028368;28;20113;-72
2022/09/12 07:02:03;;;;;;;;;;;;;;;;;;5026617;28;20028;-74
2022/09/12 07:04:32;;;;;;;;;;;;;;;;;;5028742;28;19924;-75
2022/09/12 07:06:58;;;;;;;;;;;;;;;;;;5025910;28;19925;-74
2022/09/12 07:09:25;;;;;;;;;;;;;;;;;;5027046;28;20012;-74
2022/09/12 07:11:51;;;;;;;;;;;;;;;;;;5027067;28;19932;-65
2022/09/12 07:14:17;;;;;;;;;;;;;;;;;;5028756;28;19921;-72
2022/09/12 07:16:43;;;;;;;9.48;8.38;;;;;;;;;;5028888;28;20481;-72
2022/09/12 07:19:09;;;;;;;11.15;10.00;;;;;;;;;;5027780;28;20058;-71
2022/09/12 07:21:38;;;;;;;13.65;11.32;;;;;;;;;;5026080;28;20052;-72
2022/09/12 07:24:04;;;;;;;12.75;10.85;;;;;;;;;;5027880;28;20185;-72
2022/09/12 07:26:31;;;;;;;;;;;;;;;;;;5026567;28;20142;-72
2022/09/12 07:28:57;;;;;;;;;;;;;;;;;;5027837;28;19928;-72
2022/09/12 07:31:24;;;;;;;15.07;12.48;;;;;;;;;;5025739;28;20342;-72
2022/09/12 07:33:51;;;;;;;11.82;10.00;;;;;;;;;;5017662;28;20049;-72
2022/09/12 07:36:18;;;;;;;8.48;7.68;;;;;;;;;;5027429;28;20049;-72
2022/09/12 07:38:45;;;;;;;12.25;10.88;;;;;;;;;;5028555;28;20072;-71
2022/09/12 07:41:22;;;;;;;13.20;11.80;;;;;;;;;;5025940;28;20079;-73
2022/09/12 07:43:51;;;;;;;12.43;10.68;;;;;;;;;;5020625;28;20108;-72
2022/09/12 07:46:17;;;;;;;16.13;13.38;;;;;;;;;;5015493;28;20501;-72
2022/09/12 07:48:44;;;;;;;15.23;12.80;;;;;;;;;;5025206;28;20056;-72
2022/09/12 07:51:11;;;;;;;12.93;11.47;;;;;;;;;;5026157;28;20058;-72
2022/09/12 07:53:36;;;;;;;;;;;;;;;;;;5026202;28;20303;-72
2022/09/12 07:56:03;;;;;;;;;;;;;;;;;;5026884;28;19925;-72
2022/09/12 07:58:29;;;;;;;;;;;;;;;;;;5027086;28;19921;-72
2022/09/12 08:00:55;;;;;;;;;;;;;;;;;;5027661;28;19967;-72
2022/09/12 08:03:21;;;;;;;;;;;;;;;;;;5025898;28;20398;-72
2022/09/12 08:05:47;;;;;;;;;;;;;;;;;;5027616;28;19928;-71
2022/09/12 08:08:13;;;;;;;;;;;;;;;;;;5023178;28;19925;-71
2022/09/12 08:10:39;;;;;;;9.68;8.50;;;;;;;;;;5025826;28;20400;-71
2022/09/12 08:13:06;;;;;;;10.50;9.35;;;;;;;;;;5025202;28;20128;-71
2022/09/12 08:15:33;;;;;;;10.57;9.05;;;;;;;;;;5027163;28;20065;-71
2022/09/12 08:18:00;;;;;;;8.75;7.72;;;;;;;;;;5023946;28;20075;-70
2022/09/12 08:20:26;;;;;;;7.65;6.78;;;;;;;;;;5026572;28;20053;-70
2022/09/12 08:22:52;;;;;;;7.63;6.82;;;;;;;;;;5026343;28;20175;-71
2022/09/12 08:25:18;;;;;;;7.82;7.03;;;;;;;;;;5025987;28;20099;-71
2022/09/12 08:27:45;;;;;;;8.60;7.47;;;;;;;;;;5026204;28;20416;-70
2022/09/12 08:30:12;;;;;;;7.70;6.90;;;;;;;;;;5025880;28;20056;-70
2022/09/12 08:32:38;;;;;;;8.30;7.47;;;;;;;;;;5025718;28;20488;-70
2022/09/12 08:35:04;;;;;;;12.85;11.23;;;;;;;;;;5025183;28;20057;-71
2022/09/12 08:37:30;;;;;;;17.35;14.90;;;;;;;;;;5025197;28;20057;-70
2022/09/12 08:39:56;;;;;;;17.95;15.25;;;;;;;;;;5026467;28;20045;-70
2022/09/12 08:42:27;;;;;;;15.95;13.82;;;;;;;;;;5025414;28;20044;-71
2022/09/12 08:44:53;;;;;;;;;;;;;;;;;;5024839;28;20179;-71
2022/09/12 08:47:36;;;;;;;13.60;11.90;;;;;;;;;;5027231;28;20679;-71
2022/09/12 08:50:02;;;;;;;;;;;;;;;;;;5025907;28;20041;-71
2022/09/12 08:52:28;;;;;;;;;;;;;;;;;;5024910;28;19924;-70
2022/09/12 08:54:55;;;;;;;16.90;12.93;;;;;;;;;;5025038;28;20411;-71
2022/09/12 08:57:21;;;;;;;18.65;15.27;;;;;;;;;;5025340;28;20494;-71
2022/09/12 08:59:48;;;;;;;18.80;14.82;;;;;;;;;;5024676;28;20052;-71
2022/09/12 09:02:14;;;;;;;24.67;19.77;;;;;;;;;;5025271;28;20046;-73
2022/09/12 09:04:40;;;;;;;25.13;19.58;;;;;;;;;;5024990;28;20064;-69
2022/09/12 09:07:33;;;;;;;22.55;17.40;;;;;;;;;;5023772;28;20061;-69
2022/09/12 09:10:12;;;;;;;22.45;18.25;;;;;;;;;;5023510;28;20055;-70
2022/09/12 09:12:45;;;;;;;25.55;20.10;;;;;;;;;;5025171;28;20046;-70
2022/09/12 09:15:23;;;;;;;23.50;19.58;;;;;;;;;;5025859;28;20091;-69
2022/09/12 09:17:51;;;;;;;25.15;19.67;;;;;;;;;;5023860;28;20117;-71
2022/09/12 09:20:32;;;;;;;25.05;19.20;;;;;;;;;;5023721;28;20103;-70
2022/09/12 09:23:01;;;;;;;23.75;17.88;;;;;;;;;;5020034;28;20111;-70
2022/09/12 09:25:36;;;;;;;20.73;16.02;;;;;;;;;;5024292;28;20228;-71
2022/09/12 09:28:10;;;;;;;19.50;17.25;;;;;;;;;;5023487;28;20099;-71
2022/09/12 09:30:36;;;;;;;20.75;16.70;;;;;;;;;;5024788;28;20260;-70
2022/09/12 09:33:04;;;;;;;20.98;17.88;;;;;;;;;;5023866;28;20051;-71
2022/09/12 09:35:42;;;;;;;20.55;17.08;;;;;;;;;;5023141;28;20076;-71
2022/09/12 09:38:27;;;;;;;29.33;22.77;;;;;;;;;;5021625;28;20064;-70
2022/09/12 09:41:12;;;;;;;24.52;19.08;;;;;;;;;;5003445;28;20045;-71
2022/09/12 09:43:38;;;;;;;25.73;22.45;;;;;;;;;;5004864;28;20168;-70
2022/09/12 09:46:04;;;;;;;28.13;23.70;;;;;;;;;;5009001;28;20058;-71
2022/09/12 09:48:32;;;;;;;28.88;24.13;;;;;;;;;;5025039;28;20037;-71
2022/09/12 09:50:59;;;;;;;28.17;24.25;;;;;;;;;;5024466;28;20336;-72
2022/09/12 09:53:34;;;;;;;33.00;26.63;;;;;;;;;;5014187;28;20101;-70
2022/09/12 09:56:02;;;;;;;27.88;21.50;;;;;;;;;;5018988;28;20140;-69
2022/09/12 09:58:29;;;;;;;26.33;20.38;;;;;;;;;;5025533;28;20041;-70
2022/09/12 10:01:03;;;;;;;26.70;21.13;;;;;;;;;;5018698;28;20081;-71
2022/09/12 10:03:31;;;;;;;25.13;20.15;;;;;;;;;;5015843;28;20492;-71
2022/09/12 10:05:59;;;;;;;22.98;18.65;;;;;;;;;;5023134;28;20095;-71
2022/09/12 10:08:26;;;;;;;23.95;19.42;;;;;;;;;;5022774;28;20049;-70
2022/09/12 10:11:02;;;;;;;21.52;18.08;;;;;;;;;;5022493;28;20048;-71
2022/09/12 10:13:40;;;;;;;24.75;20.13;;;;;;;;;;5008796;28;20042;-70
2022/09/12 10:16:17;;;;;;;25.85;20.35;;;;;;;;;;5002885;28;20403;-71
2022/09/12 10:18:43;;;;;;;26.65;21.25;;;;;;;;;;5004896;28;20072;-70
2022/09/12 10:21:29;;;;;;;22.75;18.20;;;;;;;;;;5002898;28;20053;-70
2022/09/12 10:24:22;;;;;;;21.08;16.58;;;;;;;;;;5004312;28;20065;-70
2022/09/12 10:26:56;;;;;;;22.35;16.35;;;;;;;;;;5001778;28;20741;-70
2022/09/12 10:29:26;;;;;;;16.25;13.68;;;;;;;;;;5020636;28;20049;-71
2022/09/12 10:31:57;;;;;;;16.75;12.75;;;;;;;;;;5016319;28;20133;-70
2022/09/12 10:34:29;;;;;;;12.50;10.70;;;;;;;;;;5015972;28;20048;-71
2022/09/12 10:36:59;;;;;;;14.30;12.00;;;;;;;;;;5020537;28;20512;-70
2022/09/12 10:39:25;;;;;;;13.75;11.45;;;;;;;;;;5022761;28;20136;-71
2022/09/12 10:41:51;;;;;;;12.27;10.48;;;;;;;;;;5014571;28;20038;-71
2022/09/12 10:44:26;;;;;;;11.15;9.25;;;;;;;;;;5016262;28;20052;-70
2022/09/12 10:46:53;;;;;;;13.32;10.90;;;;;;;;;;5018879;28;20638;-71
2022/09/12 10:49:21;;;;;;;12.88;11.40;;;;;;;;;;5010973;28;20046;-71
2022/09/12 10:51:47;;;;;;;15.07;11.82;;;;;;;;;;5012732;28;20140;-70
2022/09/12 10:54:15;;;;;;;13.88;11.52;;;;;;;;;;5016686;28;20041;-70
2022/09/12 10:56:43;;;;;;;15.00;12.00;;;;;;;;;;5011477;28;20041;-71
2022/09/12 10:59:12;;;;;;;16.30;12.52;;;;;;;;;;5002424;28;20404;-71
2022/09/12 11:01:40;;;;;;;17.35;13.38;;;;;;;;;;5003731;28;20065;-71
2022/09/12 11:04:19;;;;;;;16.60;13.35;;;;;;;;;;5006941;28;20045;-71
2022/09/12 11:06:55;;;;;;;13.82;11.55;;;;;;;;;;5021168;28;20571;-70
2022/09/12 11:09:41;;;;;;;20.60;13.95;;;;;;;;;;5019625;28;20496;-70
2022/09/12 11:12:45;;;;;;;16.00;13.10;;;;;;;;;;5020849;28;20057;-70
2022/09/12 11:15:30;;;;;;;18.33;11.77;;;;;;;;;;4964237;28;20061;-70
2022/09/12 11:18:17;;;;;;;13.05;9.40;;;;;;;;;;4961054;28;20054;-70
2022/09/12 11:20:58;;;;;;;9.80;8.10;;;;;;;;;;5011570;28;20049;-70
2022/09/12 11:23:45;;;;;;;10.85;8.55;;;;;;;;;;5013606;28;20171;-71
2022/09/12 11:26:18;;;;;;;13.35;9.30;;;;;;;;;;5011778;28;20042;-69
2022/09/12 11:29:03;;;;;;;10.95;9.55;;;;;;;;;;5017568;28;20124;-69
2022/09/12 11:31:47;;;;;;;9.07;7.47;;;;;;;;;;5017309;28;20075;-69
2022/09/12 11:34:17;;;;;;;7.05;6.32;;;;;;;;;;5022715;28;20037;-70
2022/09/12 11:36:55;;;;;;;6.80;6.10;;;;;;;;;;5014719;28;20053;-69
2022/09/12 11:39:32;;;;;;;8.52;7.00;;;;;;;;;;5016092;28;20049;-70
2022/09/12 11:42:00;;;;;;;7.80;5.47;;;;;;;;;;5022298;28;20045;-70
2022/09/12 11:44:28;;;;;;;6.38;5.78;;;;;;;;;;5022865;28;20038;-70
2022/09/12 11:46:54;;;;;;;5.35;4.85;;;;;;;;;;5024665;28;20045;-70
2022/09/12 11:49:27;;;;;;;4.63;4.20;;;;;;;;;;5019530;28;20083;-70
2022/09/12 11:51:53;;;;;;;5.68;5.10;;;;;;;;;;5019563;28;20042;-70
2022/09/12 11:54:31;;;;;;;5.35;4.85;;;;;;;;;;5015074;28;20049;-70
2022/09/12 11:57:15;;;;;;;5.40;4.90;;;;;;;;;;5022594;28;20072;-70
2022/09/12 12:00:08;;;;;;;7.38;5.78;;;;;;;;;;5013565;28;20045;-70
2022/09/12 12:02:43;;;;;;;5.18;4.68;;;;;;;;;;5015487;28;20126;-70
2022/09/12 12:05:10;;;;;;;5.75;4.95;;;;;;;;;;5017438;28;20045;-70
2022/09/12 12:07:47;;;;;;;6.95;5.72;;;;;;;;;;5017294;28;20502;-70
2022/09/12 12:10:24;;;;;;;8.95;7.38;;;;;;;;;;5021509;28;20604;-70
2022/09/12 12:12:51;;;;;;;6.55;5.93;;;;;;;;;;5017770;28;20107;-69
2022/09/12 12:15:17;;;;;;;8.10;6.40;;;;;;;;;;5017425;28;20132;-69
2022/09/12 12:17:44;;;;;;;5.75;5.25;;;;;;;;;;5016890;28;20057;-69
2022/09/12 12:20:16;;;;;;;7.20;6.25;;;;;;;;;;5024923;28;20053;-69
2022/09/12 12:22:53;;;;;;;6.50;5.90;;;;;;;;;;5012216;28;20143;-70
2022/09/12 12:25:19;;;;;;;5.50;5.00;;;;;;;;;;5020189;28;20152;-69
2022/09/12 12:27:50;;;;;;;5.75;5.25;;;;;;;;;;5019555;28;20053;-69
2022/09/12 12:30:26;;;;;;;6.32;5.75;;;;;;;;;;5015794;28;20436;-69
2022/09/12 12:32:51;;;;;;;4.95;4.35;;;;;;;;;;5024743;28;20128;-69
2022/09/12 12:35:36;;;;;;;6.18;5.55;;;;;;;;;;5022339;28;20051;-69
2022/09/12 12:38:03;;;;;;;3.88;3.53;;;;;;;;;;5008475;28;20053;-69
2022/09/12 12:40:30;;;;;;;4.40;3.75;;;;;;;;;;5019586;28;20073;-69
2022/09/12 12:42:56;;;;;;;4.35;4.05;;;;;;;;;;5023589;28;20049;-69
2022/09/12 12:45:22;;;;;;;4.10;3.38;;;;;;;;;;5024387;28;20412;-69
2022/09/12 12:48:14;;;;;;;5.82;4.35;;;;;;;;;;5019136;28;20069;-69
2022/09/12 12:50:40;;;;;;;4.20;3.60;;;;;;;;;;5023087;28;20053;-69
2022/09/12 12:53:15;;;;;;;4.72;4.15;;;;;;;;;;5022583;28;20107;-69
2022/09/12 12:55:41;;;;;;;4.20;3.80;;;;;;;;;;5019686;28;20195;-69
2022/09/12 12:58:28;;;;;;;4.88;3.78;;;;;;;;;;5023546;28;20140;-69
2022/09/12 13:01:03;;;;;;;4.13;3.72;;;;;;;;;;4997364;28;20519;-69
2022/09/12 13:03:30;;;;;;;7.70;3.95;;;;;;;;;;5005765;28;20092;-69
2022/09/12 13:06:07;;;;;;;3.00;2.70;;;;;;;;;;5003574;28;20160;-69
2022/09/12 13:08:35;;;;;;;4.88;4.47;;;;;;;;;;5006471;28;20041;-69
2022/09/12 13:11:08;;;;;;;5.00;4.60;;;;;;;;;;5008772;28;20438;-69
2022/09/12 13:13:37;;;;;;;3.85;3.42;;;;;;;;;;5014283;28;20065;-69
2022/09/12 13:16:03;;;;;;;3.92;3.53;;;;;;;;;;5018635;28;20037;-70
2022/09/12 13:18:42;;;;;;;3.72;3.42;;;;;;;;;;5024511;28;20652;-69
2022/09/12 13:21:11;;;;;;;5.20;4.25;;;;;;;;;;5020383;28;20719;-69
2022/09/12 13:23:37;;;;;;;4.25;3.95;;;;;;;;;;5023930;28;20045;-69
2022/09/12 13:26:03;;;;;;;3.40;3.10;;;;;;;;;;5024028;28;20779;-69
2022/09/12 13:28:30;;;;;;;3.55;3.25;;;;;;;;;;5025295;28;20045;-69
2022/09/12 13:31:09;;;;;;;3.70;3.40;;;;;;;;;;5024702;28;20552;-69
2022/09/12 13:33:41;;;;;;;4.03;3.65;;;;;;;;;;5019181;28;20042;-70
2022/09/12 13:36:10;;;;;;;4.43;4.03;;;;;;;;;;5024431;28;20037;-70
2022/09/12 13:38:36;;;;;;;4.35;3.95;;;;;;;;;;5016055;28;20053;-70
2022/09/12 13:41:21;;;;;;;4.88;4.20;;;;;;;;;;5024231;28;20038;-70
2022/09/12 13:43:47;;;;;;;6.05;4.60;;;;;;;;;;5016985;28;20407;-71
2022/09/12 13:46:16;;;;;;;5.20;4.18;;;;;;;;;;5023652;28;20132;-70
2022/09/12 13:48:42;;;;;;;4.35;3.95;;;;;;;;;;5023997;28;20077;-70
2022/09/12 13:51:18;;;;;;;4.68;4.00;;;;;;;;;;5024411;28;20056;-70
2022/09/12 13:53:46;;;;;;;3.65;3.35;;;;;;;;;;5018496;28;20667;-70
2022/09/12 13:56:17;;;;;;;7.55;4.53;;;;;;;;;;5023542;28;20058;-70
2022/09/12 13:58:50;;;;;;;3.50;3.20;;;;;;;;;;5024811;28;20037;-70
2022/09/12 14:01:16;;;;;;;3.03;2.70;;;;;;;;;;5023976;28;20059;-69
2022/09/12 14:06:47;;;;;;;4.20;3.85;;;;;;;;;;5020312;28;20069;-69
2022/09/12 14:09:23;;;;;;;4.35;3.95;;;;;;;;;;5024179;28;20393;-69
2022/09/12 14:11:50;;;;;;;3.03;2.83;;;;;;;;;;5023568;28;20034;-69
2022/09/12 14:14:31;;;;;;;3.80;3.45;;;;;;;;;;5019071;28;20373;-69
2022/09/12 14:16:58;;;;;;;3.45;3.00;;;;;;;;;;5022142;28;20045;-69
2022/09/12 14:19:25;;;;;;;4.78;4.20;;;;;;;;;;5024080;28;20044;-69
2022/09/12 14:21:52;;;;;;;4.80;4.40;;;;;;;;;;5022817;28;20049;-69
2022/09/12 14:24:23;;;;;;;3.95;3.60;;;;;;;;;;5014845;28;20527;-69
2022/09/12 14:26:49;;;;;;;4.07;3.78;;;;;;;;;;5024337;28;20056;-71
2022/09/12 14:29:16;;;;;;;3.20;2.90;;;;;;;;;;5017224;28;20049;-71
2022/09/12 14:31:43;;;;;;;2.83;2.63;;;;;;;;;;5023431;28;20528;-70
2022/09/12 14:34:13;;;;;;;3.72;3.42;;;;;;;;;;5019960;28;20040;-71
2022/09/12 14:36:47;;;;;;;3.60;3.30;;;;;;;;;;5023750;28;20041;-70
2022/09/12 14:39:22;;;;;;;3.75;3.42;;;;;;;;;;5024361;28;20036;-69
2022/09/12 14:41:49;;;;;;;2.75;2.55;;;;;;;;;;5018360;28;20749;-70
2022/09/12 14:44:18;;;;;;;2.20;2.10;;;;;;;;;;5019794;28;20045;-69
2022/09/12 14:46:44;;;;;;;2.30;2.10;;;;;;;;;;5024582;28;20045;-71
2022/09/12 14:49:19;;;;;;;2.80;2.60;;;;;;;;;;5022842;28;20487;-69
2022/09/12 14:51:53;;;;;;;2.40;2.20;;;;;;;;;;5024128;28;20408;-69
2022/09/12 14:54:29;;;;;;;3.20;3.00;;;;;;;;;;5024146;28;20042;-71
2022/09/12 14:57:03;;;;;;;4.68;4.28;;;;;;;;;;5023013;28;20477;-69
2022/09/12 14:59:34;;;;;;;3.75;3.45;;;;;;;;;;5023964;28;20558;-71
2022/09/12 15:02:15;;;;;;;2.30;2.10;;;;;;;;;;5022520;28;20037;-71
2022/09/12 15:04:43;;;;;;;3.30;3.10;;;;;;;;;;5020667;28;20542;-71
2022/09/12 15:07:21;;;;;;;2.20;1.92;;;;;;;;;;5023386;28;20064;-69
2022/09/12 15:09:48;;;;;;;2.47;2.28;;;;;;;;;;5020385;28;20053;-69
2022/09/12 15:12:14;;;;;;;3.13;2.90;;;;;;;;;;5027462;28;20088;-69
2022/09/12 15:14:40;;;;;;;3.00;2.70;;;;;;;;;;5026843;28;20092;-69
2022/09/12 15:17:06;;;;;;;1.90;1.80;;;;;;;;;;5026033;28;20365;-70